createdAt,value
2022-08-17T00:03:19.467Z,16.09
2022-08-17T00:08:12.909Z,16.03
2022-08-17T00:13:18.582Z,16.02
2022-08-17T00:19:00.979Z,16.00
2022-08-17T00:23:23.469Z,15.99
2022-08-17T00:28:16.283Z,15.97
2022-08-17T00:33:16.401Z,15.96
2022-08-17T00:38:12.467Z,15.95
2022-08-17T00:43:21.117Z,15.94
2022-08-17T00:48:23.814Z,15.91
2022-08-17T00:53:22.434Z,15.88
2022-08-17T00:58:15.115Z,15.84
2022-08-17T01:03:11.919Z,15.84
2022-08-17T01:08:13.217Z,15.82
2022-08-17T01:13:05.195Z,15.80
2022-08-17T01:17:57.120Z,15.79
2022-08-17T01:22:49.182Z,15.74
2022-08-17T01:27:42.346Z,15.76
2022-08-17T01:32:34.142Z,15.75
2022-08-17T01:37:38.507Z,15.73
2022-08-17T01:42:36.073Z,15.75
2022-08-17T01:47:28.065Z,15.73
2022-08-17T01:52:23.918Z,15.71
2022-08-17T01:57:15.832Z,15.68
2022-08-17T02:02:07.760Z,15.66
2022-08-17T02:06:59.643Z,15.64
2022-08-17T02:11:52.600Z,15.61
2022-08-17T02:16:45.885Z,15.61
2022-08-17T02:21:39.686Z,15.57
2022-08-17T02:26:32.226Z,15.55
2022-08-17T02:31:24.029Z,15.51
2022-08-17T02:36:15.791Z,15.45
2022-08-17T02:41:07.762Z,15.42
2022-08-17T02:45:59.426Z,15.38
2022-08-17T02:50:51.095Z,15.37
2022-08-17T02:55:43.529Z,15.38
2022-08-17T03:00:41.163Z,15.35
2022-08-17T03:05:36.224Z,15.32
2022-08-17T03:10:28.203Z,15.29
2022-08-17T03:15:26.262Z,15.27
2022-08-17T03:20:19.392Z,15.23
2022-08-17T03:25:15.944Z,15.19
2022-08-17T03:30:13.645Z,15.16
2022-08-17T03:35:08.323Z,15.15
2022-08-17T03:40:00.324Z,15.09
2022-08-17T03:44:57.772Z,15.07
2022-08-17T03:50:07.834Z,15.04
2022-08-17T03:55:20.682Z,15.03
2022-08-17T04:00:34.887Z,15.01
2022-08-17T04:05:31.334Z,15.00
2022-08-17T04:10:26.783Z,15.00
2022-08-17T04:15:19.009Z,15.00
2022-08-17T04:20:12.747Z,14.98
2022-08-17T04:25:16.576Z,14.99
2022-08-17T04:30:08.989Z,14.94
2022-08-17T04:35:00.886Z,14.94
2022-08-17T04:40:12.711Z,14.91
2022-08-17T04:45:05.019Z,14.90
2022-08-17T04:49:56.706Z,14.90
2022-08-17T04:54:48.384Z,14.91
2022-08-17T04:59:40.128Z,14.92
2022-08-17T05:04:34.803Z,14.92
2022-08-17T05:09:26.978Z,14.95
2022-08-17T05:14:18.655Z,14.94
2022-08-17T05:19:10.297Z,14.93
2022-08-17T05:24:16.747Z,14.94
2022-08-17T05:29:15.605Z,14.93
2022-08-17T05:34:07.387Z,14.91
2022-08-17T05:38:59.009Z,14.94
2022-08-17T05:43:56.084Z,14.94
2022-08-17T05:48:57.732Z,14.93
2022-08-17T05:54:25.357Z,14.96
2022-08-17T06:00:03.214Z,14.99
2022-08-17T06:05:06.560Z,14.99
2022-08-17T06:10:10.977Z,14.99
2022-08-17T06:15:19.576Z,14.96
2022-08-17T06:20:14.737Z,15.00
2022-08-17T06:25:13.510Z,15.01
2022-08-17T06:30:10.710Z,15.01
2022-08-17T06:35:03.412Z,15.01
2022-08-17T06:40:21.838Z,15.03
2022-08-17T06:45:31.761Z,15.08
2022-08-17T06:50:37.769Z,15.08
2022-08-17T06:55:38.302Z,15.07
2022-08-17T07:00:37.868Z,15.09
2022-08-17T07:05:40.138Z,15.06
2022-08-17T07:10:44.873Z,15.01
2022-08-17T07:15:43.085Z,14.97
2022-08-17T07:20:35.986Z,14.94
2022-08-17T07:25:30.763Z,14.93
2022-08-17T07:30:28.443Z,14.93
2022-08-17T07:35:37.679Z,14.91
2022-08-17T07:40:39.958Z,14.91
2022-08-17T07:45:51.569Z,14.91
2022-08-17T07:50:43.474Z,14.95
2022-08-17T07:55:41.880Z,15.00
2022-08-17T08:00:33.812Z,15.00
2022-08-17T08:05:49.140Z,15.01
2022-08-17T08:10:45.586Z,15.03
2022-08-17T08:15:45.134Z,15.08
2022-08-17T08:20:54.035Z,15.00
2022-08-17T08:26:01.933Z,15.01
2022-08-17T08:31:03.530Z,14.97
2022-08-17T08:36:13.428Z,14.94
2022-08-17T08:41:43.303Z,14.99
2022-08-17T08:46:50.204Z,15.09
2022-08-17T08:51:46.482Z,15.11
2022-08-17T08:57:19.214Z,15.17
2022-08-17T09:02:07.151Z,15.32
2022-08-17T09:07:04.766Z,15.51
2022-08-17T09:12:14.054Z,15.73
2022-08-17T09:17:16.418Z,15.90
2022-08-17T09:22:22.402Z,16.06
2022-08-17T09:27:19.713Z,16.16
2022-08-17T09:32:52.091Z,16.19
2022-08-17T09:38:07.647Z,16.20
2022-08-17T09:42:59.467Z,16.20
2022-08-17T09:47:57.506Z,16.20
2022-08-17T09:52:53.986Z,16.20
2022-08-17T09:57:51.735Z,16.15
2022-08-17T10:02:58.827Z,16.18
2022-08-17T10:08:11.067Z,16.22
2022-08-17T10:13:19.245Z,16.36
2022-08-17T10:18:12.372Z,16.55
2022-08-17T10:23:36.184Z,16.76
2022-08-17T10:28:36.863Z,16.95
2022-08-17T10:33:51.006Z,17.17
2022-08-17T10:39:04.514Z,17.41
2022-08-17T10:44:40.898Z,17.51
2022-08-17T10:49:30.377Z,17.48
2022-08-17T10:54:24.732Z,17.33
2022-08-17T10:59:51.271Z,17.30
2022-08-17T11:04:47.889Z,17.31
2022-08-17T11:10:08.487Z,17.31
2022-08-17T11:15:31.994Z,17.17
2022-08-17T11:20:51.016Z,17.08
2022-08-17T11:25:51.121Z,17.03
2022-08-17T11:30:48.977Z,17.06
2022-08-17T11:35:51.293Z,17.07
2022-08-17T11:40:44.549Z,17.06
2022-08-17T11:45:57.335Z,16.90
2022-08-17T11:51:17.511Z,16.82
2022-08-17T11:56:48.017Z,16.89
2022-08-17T12:01:58.137Z,16.91
2022-08-17T12:06:57.527Z,16.98
2022-08-17T12:12:12.781Z,17.07
2022-08-17T12:17:09.314Z,17.22
2022-08-17T12:22:22.284Z,17.47
2022-08-17T12:27:46.186Z,17.63
2022-08-17T12:32:39.483Z,17.69
2022-08-17T12:37:33.828Z,17.79
2022-08-17T12:42:29.936Z,17.83
2022-08-17T12:47:23.155Z,17.85
2022-08-17T12:52:23.712Z,17.90
2022-08-17T12:57:37.278Z,17.97
2022-08-17T13:02:37.786Z,18.07
2022-08-17T13:07:44.690Z,18.31
2022-08-17T13:12:36.622Z,18.50
2022-08-17T13:17:32.504Z,18.58
2022-08-17T13:22:27.214Z,18.53
2022-08-17T13:27:21.722Z,18.53
2022-08-17T13:32:33.484Z,18.60
2022-08-17T13:37:30.234Z,18.57
2022-08-17T13:42:52.407Z,18.48
2022-08-17T13:47:44.928Z,18.35
2022-08-17T13:52:43.121Z,18.22
2022-08-17T13:57:36.250Z,18.10
2022-08-17T14:02:28.730Z,18.04
2022-08-17T14:07:27.370Z,18.01
2022-08-17T14:12:22.557Z,18.03
2022-08-17T14:17:14.184Z,18.03
2022-08-17T14:22:09.098Z,18.03
2022-08-17T14:27:03.432Z,17.96
2022-08-17T14:31:56.344Z,17.97
2022-08-17T14:36:48.841Z,17.96
2022-08-17T14:41:41.972Z,17.92
2022-08-17T14:46:33.675Z,17.91
2022-08-17T14:51:28.620Z,17.86
2022-08-17T14:56:20.635Z,17.82
2022-08-17T15:01:14.042Z,17.76
2022-08-17T15:06:05.852Z,17.73
2022-08-17T15:10:57.556Z,17.72
2022-08-17T15:15:49.766Z,17.69
2022-08-17T15:20:42.897Z,17.68
2022-08-17T15:25:34.565Z,17.72
2022-08-17T15:30:26.609Z,17.73
2022-08-17T15:35:18.836Z,17.79
2022-08-17T15:40:13.940Z,17.87
2022-08-17T15:45:08.920Z,17.96
2022-08-17T15:50:00.686Z,18.02
2022-08-17T15:54:56.999Z,18.08
2022-08-17T15:59:52.102Z,18.08
2022-08-17T16:04:50.073Z,18.10
2022-08-17T16:09:44.466Z,18.12
2022-08-17T16:14:37.043Z,18.13
2022-08-17T16:19:29.288Z,18.11
2022-08-17T16:24:21.057Z,18.13
2022-08-17T16:29:12.783Z,18.17
2022-08-17T16:34:17.945Z,18.16
2022-08-17T16:39:10.353Z,18.11
2022-08-17T16:44:02.759Z,18.12
2022-08-17T16:48:54.365Z,18.10
2022-08-17T16:53:45.962Z,18.13
2022-08-17T16:58:50.198Z,18.15
2022-08-17T17:03:44.083Z,18.14
2022-08-17T17:08:50.736Z,18.13
2022-08-17T17:14:02.182Z,18.12
2022-08-17T17:19:18.009Z,18.15
2022-08-17T17:25:01.302Z,18.12
2022-08-17T17:30:07.586Z,18.11
2022-08-17T17:35:07.117Z,18.08
2022-08-17T17:40:05.337Z,18.07
2022-08-17T17:45:18.673Z,18.04
2022-08-17T17:50:10.854Z,17.99
2022-08-17T17:55:23.096Z,17.97
2022-08-17T18:00:39.201Z,17.91
2022-08-17T18:05:37.297Z,17.87
2022-08-17T18:10:44.450Z,17.89
2022-08-17T18:15:43.416Z,17.88
2022-08-17T18:20:43.263Z,17.90
2022-08-17T18:25:52.011Z,17.91
2022-08-17T18:30:43.701Z,17.89
2022-08-17T18:35:35.677Z,17.87
2022-08-17T18:40:31.882Z,17.86
2022-08-17T18:45:38.642Z,17.88
2022-08-17T18:50:41.472Z,17.87
2022-08-17T18:55:34.171Z,17.87
2022-08-17T19:00:47.486Z,17.87
2022-08-17T19:05:44.482Z,17.86
2022-08-17T19:10:46.228Z,17.85
2022-08-17T19:16:11.594Z,17.81
2022-08-17T19:21:19.946Z,17.77
2022-08-17T19:26:53.776Z,17.74
2022-08-17T19:31:40.758Z,17.71
2022-08-17T19:36:50.671Z,17.71
2022-08-17T19:42:00.734Z,17.69
2022-08-17T19:47:30.483Z,17.66
2022-08-17T19:53:02.092Z,17.61
2022-08-17T19:58:17.780Z,17.52
2022-08-17T20:03:35.402Z,17.44
2022-08-17T20:08:34.513Z,17.34
2022-08-17T20:13:49.869Z,17.27
2022-08-17T20:19:07.917Z,17.22
2022-08-17T20:24:25.841Z,17.19
2022-08-17T20:29:17.424Z,17.17
2022-08-17T20:34:31.009Z,17.15
2022-08-17T20:39:49.194Z,17.12
2022-08-17T20:44:42.842Z,17.10
2022-08-17T20:49:44.770Z,17.06
2022-08-17T20:54:46.144Z,16.96
2022-08-17T20:59:43.558Z,16.87
2022-08-17T21:04:42.902Z,16.75
2022-08-17T21:09:34.622Z,16.62
2022-08-17T21:15:08.049Z,16.54
2022-08-17T21:20:22.776Z,16.43
2022-08-17T21:25:32.606Z,16.32
2022-08-17T21:30:30.338Z,16.22
2022-08-17T21:35:28.933Z,16.10
2022-08-17T21:40:29.838Z,16.03
2022-08-17T21:45:41.759Z,15.91
2022-08-17T21:50:35.660Z,15.84
2022-08-17T21:55:29.961Z,15.74
2022-08-17T22:00:30.857Z,15.66
2022-08-17T22:05:51.478Z,15.57
2022-08-17T22:10:48.452Z,15.54
2022-08-17T22:15:43.772Z,15.54
2022-08-17T22:20:35.529Z,15.52
2022-08-17T22:25:31.013Z,15.51
2022-08-17T22:30:34.758Z,15.46
2022-08-17T22:35:29.378Z,15.43
2022-08-17T22:40:33.594Z,15.42
2022-08-17T22:45:29.790Z,15.39
2022-08-17T22:50:25.403Z,15.35
2022-08-17T22:55:36.542Z,15.33
2022-08-17T23:00:41.701Z,15.27
2022-08-17T23:05:34.178Z,15.24
2022-08-17T23:10:28.350Z,15.24
2022-08-17T23:15:20.125Z,15.23
2022-08-17T23:20:14.048Z,15.24
2022-08-17T23:25:06.271Z,15.25
2022-08-17T23:29:58.466Z,15.25
2022-08-17T23:34:50.927Z,15.25
2022-08-17T23:39:45.065Z,15.24
2022-08-17T23:44:39.227Z,15.24
2022-08-17T23:49:32.224Z,15.23
2022-08-17T23:54:34.989Z,15.24
2022-08-17T23:59:27.638Z,15.22
